Bostwick, Nebraska
Current Conditions -  °F | °C
As of 7:55 PM on Wednesday 26 Nov 2014 (Local Time) from KHJH Reporting Station
Clear Clear  
Wind Chill: 17°   Ceiling: Unl
Heat Index: 26°   Visibility: 10mi
Dew Point: 17°   Wind: 8mph
Humidity: 71%   Direction: 340°NNW
Pressure: 30.4"   Gusts: NA
Location:  40.0896°N, 98.1623°W
Report Text: KHJH 270155Z AUTO 34007KT 10SM CLR M04/M08 A3040 RMK AO2 T10361081
Loading
Personal Weather Stations






























Interactive Weather Map New forecast layout! Learn more

10-Day Weather Forecast

Advertisements
Track Severe Weather on mobile